Basin, Idaho
Current Conditions -  °F | °C
As of 4:53 AM on Monday 20 Oct 2014 (Local Time) from KBYI Reporting Station
Few Clouds Few Clouds  
Wind Chill: 40°   Ceiling: Unl
Heat Index: 43°   Visibility: 10mi
Dew Point: 33°   Wind: 5mph
Humidity: 68%   Direction: 30°NNE
Pressure: 29.97"   Gusts: NA
Location:  42.2256°N, 114.022°W
Report Text: KBYI 201053Z AUTO 03004KT 10SM FEW100 06/01 A2997 RMK AO2 SLP122 T00610006
Loading
Personal Weather Stations






























Interactive Weather Map
Tropical Storm Tracking
New forecast layout! Learn more

10-Day Weather Forecast

Advertisements
Track Severe Weather on mobile